createdAt,value
2019-03-26T00:00:35.711Z,2.50
2019-03-26T00:03:05.842Z,2.50
2019-03-26T00:05:36.009Z,2.50
2019-03-26T00:08:06.149Z,2.50
2019-03-26T00:10:36.260Z,2.50
2019-03-26T00:13:06.415Z,2.40
2019-03-26T00:15:36.503Z,2.30
2019-03-26T00:18:06.677Z,2.30
2019-03-26T00:20:36.811Z,2.40
2019-03-26T00:23:06.979Z,2.40
2019-03-26T00:25:37.090Z,2.40
2019-03-26T00:28:07.217Z,2.40
2019-03-26T00:30:37.329Z,2.40
2019-03-26T00:33:07.508Z,2.50
2019-03-26T00:35:37.684Z,2.30
2019-03-26T00:38:07.832Z,2.40
2019-03-26T00:40:40.170Z,2.30
2019-03-26T00:43:09.726Z,2.30
2019-03-26T00:45:39.851Z,2.40
2019-03-26T00:48:09.916Z,2.30
2019-03-26T00:50:40.029Z,2.20
2019-03-26T00:53:10.219Z,2.00
2019-03-26T00:55:40.390Z,1.90
2019-03-26T00:58:10.495Z,2.00
2019-03-26T01:00:43.687Z,1.90
2019-03-26T01:03:13.828Z,2.00
2019-03-26T01:05:43.957Z,2.20
2019-03-26T01:08:14.073Z,2.30
2019-03-26T01:10:44.181Z,2.20
2019-03-26T01:13:15.393Z,2.30
2019-03-26T01:15:45.518Z,2.10
2019-03-26T01:18:15.641Z,2.10
2019-03-26T01:20:45.730Z,2.10
2019-03-26T01:23:15.908Z,2.00
2019-03-26T01:25:46.032Z,1.90
2019-03-26T01:28:16.164Z,1.90
2019-03-26T01:30:46.309Z,1.90
2019-03-26T01:33:16.437Z,1.90
2019-03-26T01:35:46.524Z,1.90
2019-03-26T01:38:16.596Z,2.00
2019-03-26T01:40:46.838Z,2.10
2019-03-26T01:43:16.932Z,2.00
2019-03-26T01:45:47.044Z,1.80
2019-03-26T01:48:17.155Z,1.80
2019-03-26T01:50:47.424Z,1.80
2019-03-26T01:53:20.308Z,1.80
2019-03-26T01:55:50.842Z,2.00
2019-03-26T01:58:21.593Z,2.10
2019-03-26T02:00:52.045Z,2.10
2019-03-26T02:03:22.273Z,2.10
2019-03-26T02:05:52.478Z,2.10
2019-03-26T02:08:22.631Z,2.00
2019-03-26T02:10:52.745Z,2.00
2019-03-26T02:13:22.853Z,2.00
2019-03-26T02:15:52.980Z,2.10
2019-03-26T02:18:23.127Z,1.90
2019-03-26T02:20:53.903Z,1.70
2019-03-26T02:23:24.802Z,1.60
2019-03-26T02:25:55.649Z,1.70
2019-03-26T02:28:26.622Z,1.70
2019-03-26T02:30:57.529Z,1.80
2019-03-26T02:33:28.325Z,1.60
2019-03-26T02:35:59.472Z,1.60
2019-03-26T02:38:30.577Z,1.50
2019-03-26T02:41:02.023Z,1.60
2019-03-26T02:43:33.027Z,1.50
2019-03-26T02:46:05.256Z,1.50
2019-03-26T02:48:36.243Z,1.60
2019-03-26T02:51:07.472Z,1.50
2019-03-26T02:53:38.470Z,1.70
2019-03-26T02:56:09.506Z,1.80
2019-03-26T02:58:40.622Z,1.80
2019-03-26T03:01:11.583Z,1.70
2019-03-26T03:03:42.703Z,1.70
2019-03-26T03:06:13.672Z,1.60
2019-03-26T03:08:45.060Z,1.60
2019-03-26T03:11:15.937Z,1.50
2019-03-26T03:13:47.728Z,1.50
2019-03-26T03:16:18.945Z,1.60
2019-03-26T03:18:50.161Z,1.60
2019-03-26T03:21:21.408Z,1.60
2019-03-26T03:23:52.727Z,1.50
2019-03-26T03:26:23.994Z,1.60
2019-03-26T03:28:55.084Z,1.70
2019-03-26T03:31:26.000Z,1.70
2019-03-26T03:33:57.435Z,1.90
2019-03-26T03:36:28.991Z,1.80
2019-03-26T03:39:00.770Z,1.80
2019-03-26T03:41:32.539Z,1.80
2019-03-26T03:44:03.824Z,1.60
2019-03-26T03:46:37.017Z,1.70
2019-03-26T03:49:08.599Z,1.60
2019-03-26T03:51:43.956Z,1.70
2019-03-26T03:54:17.068Z,1.80
2019-03-26T03:56:51.892Z,1.60
2019-03-26T03:59:24.802Z,1.60
2019-03-26T04:01:56.281Z,1.70
2019-03-26T04:04:27.371Z,1.60
2019-03-26T04:06:59.229Z,1.70
2019-03-26T04:09:31.150Z,1.60
2019-03-26T04:17:40.594Z,1.80
2019-03-26T04:20:11.024Z,1.90
2019-03-26T04:22:41.382Z,1.90
2019-03-26T04:25:12.008Z,1.80
2019-03-26T04:27:42.258Z,1.90
2019-03-26T04:30:16.118Z,1.70
2019-03-26T04:32:46.564Z,1.70
2019-03-26T04:35:17.120Z,1.70
2019-03-26T04:37:48.032Z,1.70
2019-03-26T04:40:19.682Z,1.80
2019-03-26T04:42:57.642Z,1.80
2019-03-26T04:45:29.249Z,1.80
2019-03-26T04:48:03.545Z,1.90
2019-03-26T04:50:42.768Z,2.00
2019-03-26T04:53:16.172Z,2.00
2019-03-26T04:55:52.183Z,2.10
2019-03-26T04:58:23.744Z,2.20
2019-03-26T05:00:54.682Z,2.10
2019-03-26T05:03:25.102Z,2.20
2019-03-26T05:05:55.368Z,2.30
2019-03-26T05:08:25.792Z,2.30
2019-03-26T05:10:56.070Z,2.40
2019-03-26T05:13:28.141Z,2.50
2019-03-26T05:15:58.345Z,2.50
2019-03-26T05:18:28.829Z,2.50
2019-03-26T05:20:59.174Z,2.40
2019-03-26T05:23:29.631Z,2.50
2019-03-26T05:25:59.950Z,2.60
2019-03-26T05:28:30.284Z,2.50
2019-03-26T05:31:00.791Z,2.40
2019-03-26T05:33:30.998Z,2.40
2019-03-26T05:36:01.207Z,2.40
2019-03-26T05:38:31.608Z,2.50
2019-03-26T05:41:03.092Z,2.50
2019-03-26T05:43:34.445Z,2.50
2019-03-26T05:46:04.716Z,2.50
2019-03-26T05:48:34.885Z,2.50
2019-03-26T05:51:05.505Z,2.70
2019-03-26T05:53:35.897Z,2.70
2019-03-26T05:56:06.131Z,2.60
2019-03-26T05:58:36.365Z,2.60
2019-03-26T06:01:06.633Z,2.80
2019-03-26T06:03:36.841Z,2.80
2019-03-26T06:06:07.094Z,2.90
2019-03-26T06:08:37.914Z,3.00
2019-03-26T06:11:08.098Z,3.00
2019-03-26T06:13:38.243Z,3.10
2019-03-26T06:16:08.412Z,3.20
2019-03-26T06:18:38.607Z,3.10
2019-03-26T06:21:09.029Z,3.10
2019-03-26T06:23:39.168Z,3.20
2019-03-26T06:26:09.360Z,3.20
2019-03-26T06:28:39.530Z,3.30
2019-03-26T06:31:09.809Z,3.30
2019-03-26T06:33:40.037Z,3.40
2019-03-26T06:36:10.301Z,3.50
2019-03-26T06:38:40.538Z,3.50
2019-03-26T06:41:10.806Z,3.60
2019-03-26T06:43:41.105Z,3.70
2019-03-26T06:46:11.294Z,3.80
2019-03-26T06:48:41.491Z,3.90
2019-03-26T06:51:11.646Z,3.90
2019-03-26T06:53:41.821Z,3.80
2019-03-26T06:56:13.014Z,4.00
2019-03-26T06:58:43.241Z,3.90
2019-03-26T07:01:13.485Z,3.90
2019-03-26T07:03:43.625Z,4.00
2019-03-26T07:06:13.930Z,4.00
2019-03-26T07:08:44.245Z,3.90
2019-03-26T07:11:14.566Z,4.10
2019-03-26T07:13:44.755Z,4.10
2019-03-26T07:16:14.938Z,4.20
2019-03-26T07:18:45.134Z,4.20
2019-03-26T07:21:15.333Z,4.20
2019-03-26T07:23:45.539Z,4.20
2019-03-26T07:26:15.691Z,4.20
2019-03-26T07:28:45.858Z,4.20
2019-03-26T07:31:16.051Z,4.20
2019-03-26T07:33:46.252Z,4.30
2019-03-26T07:36:16.430Z,4.60
2019-03-26T07:38:47.763Z,4.60
2019-03-26T07:41:18.055Z,4.60
2019-03-26T07:43:48.351Z,4.90
2019-03-26T07:46:18.581Z,5.20
2019-03-26T07:48:49.025Z,5.40
2019-03-26T07:51:19.342Z,5.30
2019-03-26T07:53:49.684Z,5.30
2019-03-26T07:56:19.936Z,5.60
2019-03-26T07:58:50.131Z,5.60
2019-03-26T08:01:20.343Z,5.60
2019-03-26T08:03:50.621Z,5.70
2019-03-26T08:06:20.865Z,5.50
2019-03-26T08:08:51.121Z,5.50
2019-03-26T08:11:21.385Z,5.60
2019-03-26T08:13:51.576Z,5.60
2019-03-26T08:16:21.932Z,5.70
2019-03-26T08:18:52.222Z,5.60
2019-03-26T08:21:22.455Z,5.60
2019-03-26T08:23:52.703Z,5.60
2019-03-26T08:26:23.014Z,5.50
2019-03-26T08:28:53.461Z,5.60
2019-03-26T08:31:23.863Z,5.70
2019-03-26T08:33:54.224Z,5.80
2019-03-26T08:36:24.536Z,5.90
2019-03-26T08:38:54.809Z,5.90
2019-03-26T08:41:26.096Z,6.00
2019-03-26T08:43:57.581Z,5.90
2019-03-26T08:46:27.944Z,6.10
2019-03-26T08:48:58.229Z,6.20
2019-03-26T08:51:28.493Z,6.30
2019-03-26T08:53:58.780Z,6.40
2019-03-26T08:56:28.981Z,6.30
2019-03-26T08:58:59.194Z,6.40
2019-03-26T09:01:29.409Z,6.40
2019-03-26T09:03:59.635Z,6.50
2019-03-26T09:06:29.863Z,6.60
2019-03-26T09:09:00.118Z,6.60
2019-03-26T09:11:30.237Z,6.60
2019-03-26T09:14:00.437Z,6.50
2019-03-26T09:16:30.693Z,6.60
2019-03-26T09:19:00.961Z,6.70
2019-03-26T09:21:32.631Z,6.70
2019-03-26T09:24:03.089Z,6.70
2019-03-26T09:26:33.253Z,6.60
2019-03-26T09:29:03.439Z,6.60
2019-03-26T09:31:33.596Z,6.90
2019-03-26T09:34:03.780Z,7.30
2019-03-26T09:36:33.987Z,7.60
2019-03-26T09:39:05.595Z,7.70
2019-03-26T09:41:35.785Z,7.40
2019-03-26T09:44:06.118Z,7.20
2019-03-26T09:46:36.236Z,7.20
2019-03-26T09:49:06.457Z,7.20
2019-03-26T09:51:36.921Z,7.00
2019-03-26T09:54:07.150Z,7.00
2019-03-26T09:56:38.374Z,7.00
2019-03-26T09:59:08.649Z,7.10
2019-03-26T10:01:39.035Z,7.30
2019-03-26T10:04:09.286Z,7.50
2019-03-26T10:06:39.516Z,7.40
2019-03-26T10:09:09.762Z,7.40
2019-03-26T10:11:39.981Z,7.50
2019-03-26T10:14:10.251Z,7.60
2019-03-26T10:16:40.546Z,7.60
2019-03-26T10:19:10.730Z,7.60
2019-03-26T10:21:41.093Z,7.70
2019-03-26T10:24:11.269Z,8.00
2019-03-26T10:26:41.537Z,8.00
2019-03-26T10:29:24.159Z,7.80
2019-03-26T10:31:43.819Z,7.60
2019-03-26T10:34:14.227Z,7.40
2019-03-26T10:36:45.497Z,7.40
2019-03-26T10:39:15.680Z,7.40
2019-03-26T10:41:47.214Z,7.60
2019-03-26T10:44:17.486Z,7.80
2019-03-26T10:46:47.680Z,7.80
2019-03-26T10:49:17.885Z,7.80
2019-03-26T10:51:48.038Z,7.90
2019-03-26T10:54:18.349Z,7.80
2019-03-26T10:56:48.557Z,7.70
2019-03-26T10:59:18.844Z,7.50
2019-03-26T11:01:49.098Z,7.40
2019-03-26T11:04:19.340Z,7.20
2019-03-26T11:06:49.553Z,7.00
2019-03-26T11:09:26.710Z,6.80
2019-03-26T11:11:51.812Z,6.70
2019-03-26T11:14:22.157Z,6.70
2019-03-26T11:16:52.454Z,6.80
2019-03-26T11:19:22.725Z,6.70
2019-03-26T11:21:55.953Z,6.70
2019-03-26T11:24:29.686Z,6.70
2019-03-26T11:27:00.547Z,6.50
2019-03-26T11:29:31.651Z,6.40
2019-03-26T11:32:02.172Z,6.40
2019-03-26T11:34:40.909Z,6.40
2019-03-26T11:37:12.836Z,6.30
2019-03-26T11:39:43.882Z,6.20
2019-03-26T11:42:14.326Z,6.20
2019-03-26T11:44:44.600Z,6.10
2019-03-26T11:47:15.047Z,6.10
2019-03-26T11:49:45.597Z,6.10
2019-03-26T11:52:15.867Z,6.20
2019-03-26T11:54:46.214Z,6.30
2019-03-26T11:57:16.622Z,6.40
2019-03-26T11:59:50.830Z,6.40
2019-03-26T12:02:23.133Z,6.40
2019-03-26T12:04:53.322Z,6.70
2019-03-26T12:07:23.662Z,7.20
2019-03-26T12:09:55.763Z,7.50
2019-03-26T12:12:26.487Z,7.60
2019-03-26T12:14:59.689Z,7.30
2019-03-26T12:17:30.202Z,7.40
2019-03-26T12:20:00.807Z,7.20
2019-03-26T12:22:32.268Z,7.30
2019-03-26T12:25:02.646Z,7.70
2019-03-26T12:27:36.214Z,7.70
2019-03-26T12:30:08.907Z,7.70
2019-03-26T12:32:41.187Z,7.80
2019-03-26T12:35:23.257Z,7.60
2019-03-26T12:37:53.525Z,7.60
2019-03-26T12:40:23.788Z,7.60
2019-03-26T12:42:54.262Z,7.60
2019-03-26T12:45:24.609Z,7.90
2019-03-26T12:47:55.156Z,8.20
2019-03-26T12:50:25.682Z,8.60
2019-03-26T12:52:58.872Z,8.80
2019-03-26T12:55:29.368Z,9.00
2019-03-26T12:57:59.571Z,9.10
2019-03-26T13:00:33.605Z,9.00
2019-03-26T13:03:04.566Z,8.80
2019-03-26T13:05:36.918Z,8.70
2019-03-26T13:08:07.344Z,8.50
2019-03-26T13:10:37.939Z,8.40
2019-03-26T13:13:09.273Z,8.40
2019-03-26T13:15:43.414Z,8.50
2019-03-26T13:18:15.224Z,8.50
2019-03-26T13:20:48.837Z,8.30
2019-03-26T13:23:21.215Z,8.40
2019-03-26T13:25:51.581Z,8.50
2019-03-26T13:28:22.193Z,8.60
2019-03-26T13:30:52.614Z,8.50
2019-03-26T13:33:23.151Z,8.40
2019-03-26T13:35:54.066Z,8.10
2019-03-26T13:38:24.640Z,7.90
2019-03-26T13:40:54.958Z,7.60
2019-03-26T13:43:28.596Z,7.50
2019-03-26T13:46:03.375Z,7.30
2019-03-26T13:48:31.531Z,7.00
2019-03-26T13:51:07.105Z,6.80
2019-03-26T13:53:37.451Z,6.80
2019-03-26T13:56:07.924Z,6.90
2019-03-26T13:58:38.261Z,6.90
2019-03-26T14:01:10.637Z,6.90
2019-03-26T14:03:41.031Z,7.10
2019-03-26T14:06:11.645Z,7.20
2019-03-26T14:08:41.980Z,7.30
2019-03-26T14:11:12.193Z,7.40
2019-03-26T14:13:42.441Z,7.60
2019-03-26T14:16:12.874Z,7.80
2019-03-26T14:18:43.290Z,8.20
2019-03-26T14:21:13.858Z,8.60
2019-03-26T14:23:45.007Z,8.70
2019-03-26T14:26:15.239Z,8.50
2019-03-26T14:28:45.880Z,8.50
2019-03-26T14:31:16.258Z,8.50
2019-03-26T14:33:46.591Z,8.50
2019-03-26T14:36:16.998Z,8.60
2019-03-26T14:38:47.345Z,8.60
2019-03-26T14:41:17.804Z,8.80
2019-03-26T14:43:49.550Z,8.90
2019-03-26T14:46:22.205Z,8.90
2019-03-26T14:48:52.409Z,9.00
2019-03-26T14:51:23.230Z,8.60
2019-03-26T14:53:53.642Z,8.50
2019-03-26T14:56:23.764Z,8.40
2019-03-26T14:58:53.943Z,8.20
2019-03-26T15:01:24.224Z,8.20
2019-03-26T15:03:54.352Z,8.10
2019-03-26T15:06:24.768Z,8.10
2019-03-26T15:08:55.146Z,8.20
2019-03-26T15:11:25.548Z,8.30
2019-03-26T15:13:55.688Z,8.70
2019-03-26T15:16:25.893Z,9.10
2019-03-26T15:18:56.073Z,9.50
2019-03-26T15:21:26.529Z,9.60
2019-03-26T15:23:56.827Z,9.40
2019-03-26T15:26:27.186Z,9.00
2019-03-26T15:28:57.932Z,8.70
2019-03-26T15:31:28.362Z,8.50
2019-03-26T15:33:59.627Z,8.20
2019-03-26T15:36:30.868Z,8.10
2019-03-26T15:39:01.311Z,8.00
2019-03-26T15:41:32.476Z,8.00
2019-03-26T15:44:03.950Z,7.90
2019-03-26T15:46:46.073Z,8.20
2019-03-26T15:49:16.334Z,8.20
2019-03-26T15:51:47.063Z,8.30
2019-03-26T15:54:17.332Z,8.20
2019-03-26T15:56:47.570Z,8.20
2019-03-26T15:59:17.993Z,8.20
2019-03-26T16:01:48.486Z,8.10
2019-03-26T16:04:18.764Z,8.10
2019-03-26T16:06:49.079Z,8.00
2019-03-26T16:09:19.353Z,8.00
2019-03-26T16:11:49.725Z,8.00
2019-03-26T16:14:20.022Z,8.00
2019-03-26T16:16:50.366Z,8.00
2019-03-26T16:19:32.272Z,8.00
2019-03-26T16:21:52.529Z,7.90
2019-03-26T16:24:22.801Z,7.90
2019-03-26T16:26:53.326Z,7.90
2019-03-26T16:29:26.039Z,7.90
2019-03-26T16:31:55.806Z,7.80
2019-03-26T16:34:26.192Z,7.80
2019-03-26T16:36:59.758Z,7.80
2019-03-26T16:39:28.138Z,7.80
2019-03-26T16:41:58.436Z,7.90
2019-03-26T16:44:28.968Z,7.80
2019-03-26T16:46:59.564Z,7.90
2019-03-26T16:49:29.821Z,7.90
2019-03-26T16:52:00.033Z,7.80
2019-03-26T16:54:30.308Z,7.80
2019-03-26T16:57:00.671Z,7.80
2019-03-26T16:59:30.802Z,7.80
2019-03-26T17:02:01.298Z,7.70
2019-03-26T17:04:32.657Z,7.60
2019-03-26T17:07:03.115Z,7.60
2019-03-26T17:09:34.601Z,7.60
2019-03-26T17:12:04.903Z,7.60
2019-03-26T17:14:35.484Z,7.70
2019-03-26T17:17:06.300Z,7.60
2019-03-26T17:19:38.301Z,7.60
2019-03-26T17:22:08.588Z,7.50
2019-03-26T17:24:39.001Z,7.50
2019-03-26T17:27:09.324Z,7.60
2019-03-26T17:29:39.521Z,7.60
2019-03-26T17:32:09.822Z,7.40
2019-03-26T17:34:40.170Z,7.40
2019-03-26T17:37:10.493Z,7.40
2019-03-26T17:39:40.793Z,7.50
2019-03-26T17:42:17.015Z,7.50
2019-03-26T17:44:43.492Z,7.50
2019-03-26T17:47:13.874Z,7.40
2019-03-26T17:49:44.507Z,7.30
2019-03-26T17:52:15.483Z,7.20
2019-03-26T17:54:46.045Z,7.30
2019-03-26T17:57:17.486Z,7.10
2019-03-26T17:59:47.843Z,7.10
2019-03-26T18:02:18.154Z,7.10
2019-03-26T18:04:48.611Z,7.00
2019-03-26T18:07:18.921Z,7.00
2019-03-26T18:09:49.236Z,7.00
2019-03-26T18:12:30.234Z,7.00
2019-03-26T18:14:52.247Z,7.00
2019-03-26T18:17:22.532Z,7.00
2019-03-26T18:19:53.365Z,7.00
2019-03-26T18:22:26.119Z,6.90
2019-03-26T18:24:56.337Z,6.90
2019-03-26T18:27:26.737Z,6.80
2019-03-26T18:29:58.110Z,6.90
2019-03-26T18:32:28.440Z,6.70
2019-03-26T18:34:58.687Z,6.80
2019-03-26T18:37:28.937Z,6.80
2019-03-26T18:39:59.306Z,6.90
2019-03-26T18:42:29.717Z,6.90
2019-03-26T18:45:00.358Z,6.90
2019-03-26T18:47:30.897Z,6.80
2019-03-26T18:50:01.541Z,6.80
2019-03-26T18:52:31.841Z,6.80
2019-03-26T18:55:02.147Z,6.80
2019-03-26T18:57:32.516Z,6.70
2019-03-26T19:00:02.785Z,6.70
2019-03-26T19:02:33.151Z,6.60
2019-03-26T19:05:03.729Z,6.70
2019-03-26T19:07:34.145Z,6.70
2019-03-26T19:10:04.573Z,6.70
2019-03-26T19:12:34.926Z,6.60
2019-03-26T19:15:06.979Z,6.70
2019-03-26T19:17:37.284Z,6.60
2019-03-26T19:20:07.664Z,6.50
2019-03-26T19:22:37.919Z,6.50
2019-03-26T19:25:08.345Z,6.50
2019-03-26T19:27:38.691Z,6.60
2019-03-26T19:30:09.516Z,6.60
2019-03-26T19:32:39.777Z,6.70
2019-03-26T19:35:13.478Z,6.60
2019-03-26T19:37:44.173Z,6.50
2019-03-26T19:40:15.176Z,6.60
2019-03-26T19:42:45.313Z,6.60
2019-03-26T19:45:15.885Z,6.70
2019-03-26T19:47:46.182Z,6.60
2019-03-26T19:50:16.745Z,6.40
2019-03-26T19:52:46.920Z,6.40
2019-03-26T19:55:17.140Z,6.20
2019-03-26T19:57:47.478Z,6.30
2019-03-26T20:00:18.115Z,6.40
2019-03-26T20:02:48.405Z,6.40
2019-03-26T20:05:18.761Z,6.50
2019-03-26T20:07:48.981Z,6.50
2019-03-26T20:10:19.568Z,6.40
2019-03-26T20:13:03.814Z,6.20
2019-03-26T20:15:34.114Z,6.20
2019-03-26T20:18:04.517Z,6.20
2019-03-26T20:20:34.782Z,6.20
2019-03-26T20:23:05.092Z,6.20
2019-03-26T20:25:35.792Z,6.20
2019-03-26T20:28:06.099Z,6.10
2019-03-26T20:30:36.440Z,6.00
2019-03-26T20:33:06.880Z,6.10
2019-03-26T20:35:37.158Z,6.00
2019-03-26T20:38:07.520Z,6.00
2019-03-26T20:40:37.744Z,5.90
2019-03-26T20:43:08.009Z,5.90
2019-03-26T20:45:38.353Z,5.90
2019-03-26T20:48:10.641Z,6.00
2019-03-26T20:50:40.974Z,5.90
2019-03-26T20:53:11.351Z,5.70
2019-03-26T20:55:53.606Z,5.50
2019-03-26T20:58:14.799Z,5.60
2019-03-26T21:00:45.098Z,5.60
2019-03-26T21:03:15.312Z,5.50
2019-03-26T21:05:45.547Z,5.30
2019-03-26T21:08:15.963Z,5.40
2019-03-26T21:10:46.189Z,5.30
2019-03-26T21:13:16.448Z,5.20
2019-03-26T21:15:56.525Z,5.00
2019-03-26T21:18:18.753Z,5.00
2019-03-26T21:20:49.089Z,4.90
2019-03-26T21:23:19.421Z,5.00
2019-03-26T21:25:50.649Z,5.20
2019-03-26T21:28:20.840Z,5.10
2019-03-26T21:30:51.050Z,5.00
2019-03-26T21:33:21.304Z,4.90
2019-03-26T21:36:02.859Z,4.90
2019-03-26T21:38:33.135Z,4.90
2019-03-26T21:41:03.412Z,4.70
2019-03-26T21:43:33.833Z,4.80
2019-03-26T21:46:04.092Z,4.80
2019-03-26T21:48:34.346Z,4.60
2019-03-26T21:51:04.620Z,4.50
2019-03-26T21:53:34.836Z,4.60
2019-03-26T21:56:06.726Z,4.70
2019-03-26T21:58:37.102Z,4.50
2019-03-26T22:01:07.373Z,4.70
2019-03-26T22:03:37.724Z,4.60
2019-03-26T22:06:08.838Z,4.50
2019-03-26T22:08:39.109Z,4.50
2019-03-26T22:11:09.399Z,4.30
2019-03-26T22:13:39.700Z,4.30
2019-03-26T22:16:09.876Z,4.30
2019-03-26T22:18:40.122Z,4.20
2019-03-26T22:21:10.355Z,4.20
2019-03-26T22:23:40.573Z,4.20
2019-03-26T22:26:10.715Z,4.30
2019-03-26T22:28:40.845Z,4.30
2019-03-26T22:31:11.082Z,4.20
2019-03-26T22:33:41.380Z,4.20
2019-03-26T22:36:11.653Z,4.20
2019-03-26T22:38:41.865Z,4.20
2019-03-26T22:41:12.165Z,4.10
2019-03-26T22:43:42.390Z,4.10
2019-03-26T22:46:12.681Z,3.90
2019-03-26T22:48:42.964Z,3.80
2019-03-26T22:51:13.185Z,3.70
2019-03-26T22:53:43.289Z,3.70
2019-03-26T22:56:13.480Z,3.60
2019-03-26T22:58:43.755Z,3.60
2019-03-26T23:01:14.270Z,3.60
2019-03-26T23:03:46.241Z,3.60
2019-03-26T23:06:16.464Z,3.50
2019-03-26T23:08:46.705Z,3.30
2019-03-26T23:11:17.064Z,3.40
2019-03-26T23:13:47.413Z,3.70
2019-03-26T23:16:19.158Z,3.80
2019-03-26T23:18:49.884Z,3.50
2019-03-26T23:21:20.130Z,3.40
2019-03-26T23:23:50.483Z,3.40
2019-03-26T23:26:20.604Z,3.60
2019-03-26T23:28:50.724Z,3.70
2019-03-26T23:31:20.888Z,3.70
2019-03-26T23:33:51.017Z,3.50
2019-03-26T23:36:21.760Z,3.50
2019-03-26T23:38:52.497Z,3.50
2019-03-26T23:41:23.372Z,3.60
2019-03-26T23:43:54.032Z,3.40
2019-03-26T23:46:24.855Z,3.50
2019-03-26T23:48:55.681Z,3.50
2019-03-26T23:51:26.518Z,3.50
2019-03-26T23:53:57.392Z,3.50
2019-03-26T23:56:27.633Z,3.30
2019-03-26T23:58:57.919Z,3.30
